sensor_id;sensor_type;location;lat;lon;timestamp;P1;durP1;ratioP1;P2;durP2;ratioP2
23668;SDS011;12011;47.422;15.018;2024-03-23T00:55:31;7.29;;;7.28;;
23668;SDS011;12011;47.422;15.018;2024-03-23T00:58:03;8.40;;;8.33;;
23668;SDS011;12011;47.422;15.018;2024-03-23T01:00:31;6.01;;;5.95;;
23668;SDS011;12011;47.422;15.018;2024-03-23T01:03:09;5.28;;;5.27;;
23668;SDS011;12011;47.422;15.018;2024-03-23T01:05:37;4.77;;;4.77;;
23668;SDS011;12011;47.422;15.018;2024-03-23T01:08:08;4.51;;;4.51;;
23668;SDS011;12011;47.422;15.018;2024-03-23T01:10:39;5.21;;;5.21;;
23668;SDS011;12011;47.422;15.018;2024-03-23T01:13:07;5.33;;;5.31;;
23668;SDS011;12011;47.422;15.018;2024-03-23T01:15:34;5.02;;;5.02;;
23668;SDS011;12011;47.422;15.018;2024-03-23T01:18:03;5.01;;;5.00;;
23668;SDS011;12011;47.422;15.018;2024-03-23T01:20:38;4.85;;;4.85;;
23668;SDS011;12011;47.422;15.018;2024-03-23T01:23:08;5.25;;;5.24;;
23668;SDS011;12011;47.422;15.018;2024-03-23T01:25:39;5.49;;;5.48;;
23668;SDS011;12011;47.422;15.018;2024-03-23T01:28:16;5.11;;;5.10;;
23668;SDS011;12011;47.422;15.018;2024-03-23T01:30:43;5.19;;;5.18;;
23668;SDS011;12011;47.422;15.018;2024-03-23T01:33:11;5.08;;;5.08;;
23668;SDS011;12011;47.422;15.018;2024-03-23T01:35:38;3.67;;;3.67;;
23668;SDS011;12011;47.422;15.018;2024-03-23T01:38:12;3.81;;;3.81;;
23668;SDS011;12011;47.422;15.018;2024-03-23T01:40:42;4.35;;;4.35;;
23668;SDS011;12011;47.422;15.018;2024-03-23T01:43:10;5.05;;;5.04;;
23668;SDS011;12011;47.422;15.018;2024-03-23T01:45:39;4.94;;;4.94;;
23668;SDS011;12011;47.422;15.018;2024-03-23T01:48:09;4.82;;;4.82;;
23668;SDS011;12011;47.422;15.018;2024-03-23T01:50:43;4.64;;;4.64;;
23668;SDS011;12011;47.422;15.018;2024-03-23T01:53:17;4.43;;;4.43;;
23668;SDS011;12011;47.422;15.018;2024-03-23T01:55:49;4.48;;;4.45;;
23668;SDS011;12011;47.422;15.018;2024-03-23T01:58:18;4.90;;;4.90;;
23668;SDS011;12011;47.422;15.018;2024-03-23T02:00:45;5.02;;;5.02;;
23668;SDS011;12011;47.422;15.018;2024-03-23T02:03:26;5.50;;;5.50;;
23668;SDS011;12011;47.422;15.018;2024-03-23T02:06:00;5.69;;;5.68;;
23668;SDS011;12011;47.422;15.018;2024-03-23T02:08:27;5.00;;;5.00;;
23668;SDS011;12011;47.422;15.018;2024-03-23T02:11:15;4.66;;;4.66;;
23668;SDS011;12011;47.422;15.018;2024-03-23T02:13:42;4.30;;;4.27;;
23668;SDS011;12011;47.422;15.018;2024-03-23T02:16:14;5.36;;;5.30;;
23668;SDS011;12011;47.422;15.018;2024-03-23T02:18:43;5.48;;;5.46;;
23668;SDS011;12011;47.422;15.018;2024-03-23T02:21:12;5.27;;;5.23;;
23668;SDS011;12011;47.422;15.018;2024-03-23T02:23:45;4.86;;;4.86;;
23668;SDS011;12011;47.422;15.018;2024-03-23T02:26:12;4.47;;;4.47;;
23668;SDS011;12011;47.422;15.018;2024-03-23T02:28:41;4.07;;;4.06;;
23668;SDS011;12011;47.422;15.018;2024-03-23T02:31:10;3.91;;;3.90;;
23668;SDS011;12011;47.422;15.018;2024-03-23T02:33:37;3.52;;;3.52;;
23668;SDS011;12011;47.422;15.018;2024-03-23T02:36:14;3.72;;;3.72;;
23668;SDS011;12011;47.422;15.018;2024-03-23T02:38:45;3.69;;;3.69;;
23668;SDS011;12011;47.422;15.018;2024-03-23T02:41:13;3.65;;;3.65;;
23668;SDS011;12011;47.422;15.018;2024-03-23T02:43:43;3.66;;;3.66;;
23668;SDS011;12011;47.422;15.018;2024-03-23T02:46:17;3.45;;;3.45;;
23668;SDS011;12011;47.422;15.018;2024-03-23T02:48:48;3.53;;;3.52;;
23668;SDS011;12011;47.422;15.018;2024-03-23T02:51:15;3.75;;;3.75;;
23668;SDS011;12011;47.422;15.018;2024-03-23T02:53:48;3.45;;;3.45;;
23668;SDS011;12011;47.422;15.018;2024-03-23T02:56:18;3.15;;;3.15;;
23668;SDS011;12011;47.422;15.018;2024-03-23T02:58:47;3.07;;;3.07;;
23668;SDS011;12011;47.422;15.018;2024-03-23T03:01:17;3.07;;;3.06;;
23668;SDS011;12011;47.422;15.018;2024-03-23T03:03:49;3.34;;;3.34;;
23668;SDS011;12011;47.422;15.018;2024-03-23T03:06:22;5.55;;;5.53;;
23668;SDS011;12011;47.422;15.018;2024-03-23T03:09:02;7.77;;;7.54;;
23668;SDS011;12011;47.422;15.018;2024-03-23T03:11:31;6.37;;;6.25;;
23668;SDS011;12011;47.422;15.018;2024-03-23T03:13:58;6.29;;;6.17;;
23668;SDS011;12011;47.422;15.018;2024-03-23T03:16:25;5.35;;;5.26;;
23668;SDS011;12011;47.422;15.018;2024-03-23T03:19:02;6.17;;;6.14;;
23668;SDS011;12011;47.422;15.018;2024-03-23T03:21:31;25.26;;;24.35;;
23668;SDS011;12011;47.422;15.018;2024-03-23T03:24:07;24.25;;;23.10;;
23668;SDS011;12011;47.422;15.018;2024-03-23T03:26:36;8.54;;;8.36;;
23668;SDS011;12011;47.422;15.018;2024-03-23T03:29:03;5.71;;;5.68;;
23668;SDS011;12011;47.422;15.018;2024-03-23T03:31:30;5.47;;;5.45;;
23668;SDS011;12011;47.422;15.018;2024-03-23T03:34:01;4.99;;;4.99;;
23668;SDS011;12011;47.422;15.018;2024-03-23T03:36:35;4.54;;;4.54;;
23668;SDS011;12011;47.422;15.018;2024-03-23T03:39:04;3.65;;;3.64;;
23668;SDS011;12011;47.422;15.018;2024-03-23T03:41:45;3.33;;;3.31;;
23668;SDS011;12011;47.422;15.018;2024-03-23T03:44:15;3.22;;;3.22;;
23668;SDS011;12011;47.422;15.018;2024-03-23T03:46:47;3.27;;;3.27;;
23668;SDS011;12011;47.422;15.018;2024-03-23T03:49:14;3.28;;;3.28;;
23668;SDS011;12011;47.422;15.018;2024-03-23T03:51:47;3.13;;;3.13;;
23668;SDS011;12011;47.422;15.018;2024-03-23T03:54:21;3.79;;;3.79;;
23668;SDS011;12011;47.422;15.018;2024-03-23T03:56:50;4.30;;;4.29;;
23668;SDS011;12011;47.422;15.018;2024-03-23T03:59:19;4.14;;;4.13;;
23668;SDS011;12011;47.422;15.018;2024-03-23T04:01:47;3.81;;;3.79;;
23668;SDS011;12011;47.422;15.018;2024-03-23T04:04:24;3.83;;;3.83;;
23668;SDS011;12011;47.422;15.018;2024-03-23T04:06:59;3.37;;;3.37;;
23668;SDS011;12011;47.422;15.018;2024-03-23T04:09:33;3.05;;;3.05;;
23668;SDS011;12011;47.422;15.018;2024-03-23T04:12:09;3.32;;;3.32;;
23668;SDS011;12011;47.422;15.018;2024-03-23T04:14:36;3.02;;;3.02;;
23668;SDS011;12011;47.422;15.018;2024-03-23T04:17:05;3.13;;;3.13;;
23668;SDS011;12011;47.422;15.018;2024-03-23T04:19:34;2.76;;;2.76;;
23668;SDS011;12011;47.422;15.018;2024-03-23T04:22:01;3.35;;;3.35;;
23668;SDS011;12011;47.422;15.018;2024-03-23T04:24:32;3.40;;;3.38;;
23668;SDS011;12011;47.422;15.018;2024-03-23T04:27:05;2.93;;;2.92;;
23668;SDS011;12011;47.422;15.018;2024-03-23T04:29:35;3.10;;;3.09;;
23668;SDS011;12011;47.422;15.018;2024-03-23T04:32:04;3.01;;;3.01;;
23668;SDS011;12011;47.422;15.018;2024-03-23T04:34:34;2.80;;;2.80;;
23668;SDS011;12011;47.422;15.018;2024-03-23T04:37:08;2.72;;;2.72;;
23668;SDS011;12011;47.422;15.018;2024-03-23T04:39:39;2.62;;;2.62;;
23668;SDS011;12011;47.422;15.018;2024-03-23T04:42:08;2.98;;;2.98;;
23668;SDS011;12011;47.422;15.018;2024-03-23T04:44:39;3.06;;;3.06;;
23668;SDS011;12011;47.422;15.018;2024-03-23T04:47:08;3.29;;;3.29;;
23668;SDS011;12011;47.422;15.018;2024-03-23T04:49:38;3.09;;;3.09;;
23668;SDS011;12011;47.422;15.018;2024-03-23T04:52:05;3.06;;;3.06;;
23668;SDS011;12011;47.422;15.018;2024-03-23T04:54:39;3.08;;;3.08;;
23668;SDS011;12011;47.422;15.018;2024-03-23T04:57:08;3.24;;;3.24;;
23668;SDS011;12011;47.422;15.018;2024-03-23T04:59:40;3.25;;;3.25;;
23668;SDS011;12011;47.422;15.018;2024-03-23T05:02:07;3.42;;;3.41;;
23668;SDS011;12011;47.422;15.018;2024-03-23T05:04:38;4.60;;;4.56;;
23668;SDS011;12011;47.422;15.018;2024-03-23T05:07:05;5.39;;;5.35;;
23668;SDS011;12011;47.422;15.018;2024-03-23T05:09:32;5.78;;;5.77;;
23668;SDS011;12011;47.422;15.018;2024-03-23T05:12:06;5.83;;;5.82;;
23668;SDS011;12011;47.422;15.018;2024-03-23T05:14:33;6.06;;;6.03;;
23668;SDS011;12011;47.422;15.018;2024-03-23T05:17:00;5.29;;;5.25;;
23668;SDS011;12011;47.422;15.018;2024-03-23T05:19:30;5.33;;;5.31;;
23668;SDS011;12011;47.422;15.018;2024-03-23T05:22:01;4.74;;;4.71;;
23668;SDS011;12011;47.422;15.018;2024-03-23T05:24:28;5.02;;;5.00;;
23668;SDS011;12011;47.422;15.018;2024-03-23T05:26:56;5.60;;;5.58;;
23668;SDS011;12011;47.422;15.018;2024-03-23T05:29:29;5.36;;;5.35;;
23668;SDS011;12011;47.422;15.018;2024-03-23T05:31:59;5.01;;;5.00;;
23668;SDS011;12011;47.422;15.018;2024-03-23T05:34:26;5.09;;;5.09;;
23668;SDS011;12011;47.422;15.018;2024-03-23T05:36:53;5.32;;;5.31;;
23668;SDS011;12011;47.422;15.018;2024-03-23T05:39:20;5.55;;;5.52;;
23668;SDS011;12011;47.422;15.018;2024-03-23T05:41:47;5.61;;;5.59;;
23668;SDS011;12011;47.422;15.018;2024-03-23T05:44:14;5.14;;;5.13;;
23668;SDS011;12011;47.422;15.018;2024-03-23T05:46:43;5.22;;;5.21;;
23668;SDS011;12011;47.422;15.018;2024-03-23T05:49:12;5.13;;;5.09;;
23668;SDS011;12011;47.422;15.018;2024-03-23T05:51:38;5.65;;;5.60;;
23668;SDS011;12011;47.422;15.018;2024-03-23T05:54:05;5.72;;;5.66;;
23668;SDS011;12011;47.422;15.018;2024-03-23T05:56:32;5.72;;;5.65;;
23668;SDS011;12011;47.422;15.018;2024-03-23T05:58:59;7.98;;;7.90;;
23668;SDS011;12011;47.422;15.018;2024-03-23T06:01:26;6.84;;;6.81;;
23668;SDS011;12011;47.422;15.018;2024-03-23T06:03:56;5.85;;;5.80;;
23668;SDS011;12011;47.422;15.018;2024-03-23T06:06:23;5.63;;;5.60;;
23668;SDS011;12011;47.422;15.018;2024-03-23T06:08:49;5.64;;;5.62;;
23668;SDS011;12011;47.422;15.018;2024-03-23T06:11:16;7.60;;;7.57;;
23668;SDS011;12011;47.422;15.018;2024-03-23T06:13:43;7.71;;;7.68;;
23668;SDS011;12011;47.422;15.018;2024-03-23T06:16:10;7.15;;;7.08;;
23668;SDS011;12011;47.422;15.018;2024-03-23T06:18:37;7.39;;;7.31;;
23668;SDS011;12011;47.422;15.018;2024-03-23T06:21:08;6.81;;;6.76;;
23668;SDS011;12011;47.422;15.018;2024-03-23T06:23:40;7.05;;;7.00;;
23668;SDS011;12011;47.422;15.018;2024-03-23T06:26:07;6.70;;;6.65;;
23668;SDS011;12011;47.422;15.018;2024-03-23T06:28:34;6.58;;;6.58;;
23668;SDS011;12011;47.422;15.018;2024-03-23T06:31:01;6.02;;;6.02;;
23668;SDS011;12011;47.422;15.018;2024-03-23T06:33:28;5.65;;;5.64;;
23668;SDS011;12011;47.422;15.018;2024-03-23T06:35:55;6.04;;;6.02;;
23668;SDS011;12011;47.422;15.018;2024-03-23T06:38:24;6.73;;;6.69;;
23668;SDS011;12011;47.422;15.018;2024-03-23T06:40:51;6.33;;;6.29;;
23668;SDS011;12011;47.422;15.018;2024-03-23T06:43:18;6.22;;;6.21;;
23668;SDS011;12011;47.422;15.018;2024-03-23T06:45:52;6.18;;;6.16;;
23668;SDS011;12011;47.422;15.018;2024-03-23T06:48:19;5.86;;;5.83;;
23668;SDS011;12011;47.422;15.018;2024-03-23T06:50:46;6.00;;;5.98;;
23668;SDS011;12011;47.422;15.018;2024-03-23T06:53:13;5.88;;;5.86;;
23668;SDS011;12011;47.422;15.018;2024-03-23T06:55:43;5.97;;;5.95;;
23668;SDS011;12011;47.422;15.018;2024-03-23T06:58:18;6.21;;;6.18;;
23668;SDS011;12011;47.422;15.018;2024-03-23T07:00:45;6.89;;;6.82;;
23668;SDS011;12011;47.422;15.018;2024-03-23T07:03:12;5.90;;;5.85;;
23668;SDS011;12011;47.422;15.018;2024-03-23T07:05:39;6.18;;;6.16;;
23668;SDS011;12011;47.422;15.018;2024-03-23T07:08:06;5.27;;;5.26;;
23668;SDS011;12011;47.422;15.018;2024-03-23T07:10:33;3.93;;;3.89;;
23668;SDS011;12011;47.422;15.018;2024-03-23T07:13:03;3.26;;;3.23;;
23668;SDS011;12011;47.422;15.018;2024-03-23T07:15:30;2.70;;;2.68;;
23668;SDS011;12011;47.422;15.018;2024-03-23T07:17:56;2.71;;;2.69;;
23668;SDS011;12011;47.422;15.018;2024-03-23T07:20:23;2.84;;;2.84;;
23668;SDS011;12011;47.422;15.018;2024-03-23T07:22:50;3.08;;;3.08;;
23668;SDS011;12011;47.422;15.018;2024-03-23T07:25:17;3.05;;;3.05;;
23668;SDS011;12011;47.422;15.018;2024-03-23T07:27:44;3.37;;;3.36;;
23668;SDS011;12011;47.422;15.018;2024-03-23T07:30:13;3.18;;;3.18;;
23668;SDS011;12011;47.422;15.018;2024-03-23T07:32:40;3.02;;;3.01;;
23668;SDS011;12011;47.422;15.018;2024-03-23T07:35:10;2.99;;;2.99;;
23668;SDS011;12011;47.422;15.018;2024-03-23T07:37:36;2.89;;;2.89;;
23668;SDS011;12011;47.422;15.018;2024-03-23T07:40:04;2.62;;;2.62;;
23668;SDS011;12011;47.422;15.018;2024-03-23T07:42:32;2.72;;;2.72;;
23668;SDS011;12011;47.422;15.018;2024-03-23T07:44:59;3.14;;;3.14;;
23668;SDS011;12011;47.422;15.018;2024-03-23T07:47:28;3.20;;;3.20;;
23668;SDS011;12011;47.422;15.018;2024-03-23T07:49:57;2.88;;;2.88;;
23668;SDS011;12011;47.422;15.018;2024-03-23T07:52:24;2.74;;;2.74;;
23668;SDS011;12011;47.422;15.018;2024-03-23T07:54:53;2.71;;;2.71;;
23668;SDS011;12011;47.422;15.018;2024-03-23T07:57:20;2.43;;;2.43;;
23668;SDS011;12011;47.422;15.018;2024-03-23T07:59:47;2.53;;;2.53;;
23668;SDS011;12011;47.422;15.018;2024-03-23T08:02:14;3.09;;;3.09;;
23668;SDS011;12011;47.422;15.018;2024-03-23T08:04:43;2.96;;;2.94;;
23668;SDS011;12011;47.422;15.018;2024-03-23T08:07:10;2.68;;;2.67;;
23668;SDS011;12011;47.422;15.018;2024-03-23T08:09:37;2.36;;;2.34;;
23668;SDS011;12011;47.422;15.018;2024-03-23T08:12:04;2.29;;;2.29;;
23668;SDS011;12011;47.422;15.018;2024-03-23T08:14:31;2.29;;;2.29;;
23668;SDS011;12011;47.422;15.018;2024-03-23T08:16:58;2.31;;;2.31;;
23668;SDS011;12011;47.422;15.018;2024-03-23T08:19:25;2.07;;;2.07;;
23668;SDS011;12011;47.422;15.018;2024-03-23T08:21:54;1.84;;;1.84;;
23668;SDS011;12011;47.422;15.018;2024-03-23T08:24:21;2.07;;;2.07;;
23668;SDS011;12011;47.422;15.018;2024-03-23T08:26:48;2.09;;;2.09;;
23668;SDS011;12011;47.422;15.018;2024-03-23T08:29:15;1.99;;;1.99;;
23668;SDS011;12011;47.422;15.018;2024-03-23T08:31:41;1.71;;;1.71;;
23668;SDS011;12011;47.422;15.018;2024-03-23T08:34:08;1.78;;;1.78;;
23668;SDS011;12011;47.422;15.018;2024-03-23T08:36:35;1.89;;;1.89;;
23668;SDS011;12011;47.422;15.018;2024-03-23T08:39:04;1.76;;;1.76;;
23668;SDS011;12011;47.422;15.018;2024-03-23T08:41:31;1.68;;;1.68;;
23668;SDS011;12011;47.422;15.018;2024-03-23T08:43:58;1.97;;;1.97;;
23668;SDS011;12011;47.422;15.018;2024-03-23T08:46:25;1.76;;;1.76;;
23668;SDS011;12011;47.422;15.018;2024-03-23T08:48:51;1.67;;;1.67;;
23668;SDS011;12011;47.422;15.018;2024-03-23T08:51:18;1.65;;;1.65;;
23668;SDS011;12011;47.422;15.018;2024-03-23T08:53:45;1.72;;;1.72;;
23668;SDS011;12011;47.422;15.018;2024-03-23T08:56:15;1.60;;;1.60;;
23668;SDS011;12011;47.422;15.018;2024-03-23T08:58:42;1.53;;;1.53;;
23668;SDS011;12011;47.422;15.018;2024-03-23T09:01:09;1.61;;;1.61;;
23668;SDS011;12011;47.422;15.018;2024-03-23T09:03:39;1.66;;;1.66;;
23668;SDS011;12011;47.422;15.018;2024-03-23T09:06:06;1.58;;;1.58;;
23668;SDS011;12011;47.422;15.018;2024-03-23T09:08:34;1.45;;;1.45;;
23668;SDS011;12011;47.422;15.018;2024-03-23T09:11:03;1.38;;;1.38;;
23668;SDS011;12011;47.422;15.018;2024-03-23T09:13:34;1.57;;;1.57;;
23668;SDS011;12011;47.422;15.018;2024-03-23T09:16:03;1.40;;;1.40;;
23668;SDS011;12011;47.422;15.018;2024-03-23T09:18:31;1.50;;;1.50;;
23668;SDS011;12011;47.422;15.018;2024-03-23T09:21:00;1.35;;;1.35;;
23668;SDS011;12011;47.422;15.018;2024-03-23T09:23:27;1.50;;;1.50;;
23668;SDS011;12011;47.422;15.018;2024-03-23T09:25:54;1.53;;;1.53;;
23668;SDS011;12011;47.422;15.018;2024-03-23T09:28:21;1.50;;;1.50;;
23668;SDS011;12011;47.422;15.018;2024-03-23T09:30:51;1.44;;;1.44;;
23668;SDS011;12011;47.422;15.018;2024-03-23T09:33:18;1.55;;;1.55;;
23668;SDS011;12011;47.422;15.018;2024-03-23T09:35:45;1.48;;;1.48;;
23668;SDS011;12011;47.422;15.018;2024-03-23T09:38:11;1.48;;;1.48;;
23668;SDS011;12011;47.422;15.018;2024-03-23T09:40:40;1.61;;;1.61;;
23668;SDS011;12011;47.422;15.018;2024-03-23T09:43:08;1.56;;;1.56;;
23668;SDS011;12011;47.422;15.018;2024-03-23T09:45:36;1.64;;;1.64;;
23668;SDS011;12011;47.422;15.018;2024-03-23T09:48:09;1.57;;;1.57;;
23668;SDS011;12011;47.422;15.018;2024-03-23T09:50:37;1.72;;;1.72;;
23668;SDS011;12011;47.422;15.018;2024-03-23T09:53:05;1.57;;;1.57;;
23668;SDS011;12011;47.422;15.018;2024-03-23T09:55:34;1.62;;;1.62;;
23668;SDS011;12011;47.422;15.018;2024-03-23T09:58:01;1.40;;;1.40;;
23668;SDS011;12011;47.422;15.018;2024-03-23T10:00:29;1.42;;;1.42;;
23668;SDS011;12011;47.422;15.018;2024-03-23T10:02:56;1.30;;;1.30;;
23668;SDS011;12011;47.422;15.018;2024-03-23T10:05:26;1.28;;;1.28;;
23668;SDS011;12011;47.422;15.018;2024-03-23T10:07:53;1.16;;;1.16;;
23668;SDS011;12011;47.422;15.018;2024-03-23T10:10:20;1.13;;;1.13;;
23668;SDS011;12011;47.422;15.018;2024-03-23T10:12:48;1.23;;;1.23;;
23668;SDS011;12011;47.422;15.018;2024-03-23T10:15:19;1.18;;;1.18;;
23668;SDS011;12011;47.422;15.018;2024-03-23T10:17:49;1.28;;;1.28;;
23668;SDS011;12011;47.422;15.018;2024-03-23T10:20:19;1.28;;;1.28;;
23668;SDS011;12011;47.422;15.018;2024-03-23T10:22:49;1.08;;;1.08;;
23668;SDS011;12011;47.422;15.018;2024-03-23T10:25:17;1.24;;;1.24;;
23668;SDS011;12011;47.422;15.018;2024-03-23T10:27:55;1.35;;;1.35;;
23668;SDS011;12011;47.422;15.018;2024-03-23T10:30:25;1.39;;;1.39;;
23668;SDS011;12011;47.422;15.018;2024-03-23T10:32:53;1.30;;;1.30;;
23668;SDS011;12011;47.422;15.018;2024-03-23T10:35:34;1.33;;;1.33;;
23668;SDS011;12011;47.422;15.018;2024-03-23T10:38:05;1.39;;;1.39;;
23668;SDS011;12011;47.422;15.018;2024-03-23T10:40:33;1.31;;;1.31;;
23668;SDS011;12011;47.422;15.018;2024-03-23T10:43:01;1.23;;;1.23;;
23668;SDS011;12011;47.422;15.018;2024-03-23T10:45:30;1.19;;;1.19;;
23668;SDS011;12011;47.422;15.018;2024-03-23T10:47:57;1.10;;;1.10;;
23668;SDS011;12011;47.422;15.018;2024-03-23T10:50:24;1.11;;;1.11;;
23668;SDS011;12011;47.422;15.018;2024-03-23T10:52:52;1.05;;;1.05;;
23668;SDS011;12011;47.422;15.018;2024-03-23T10:58:03;1.29;;;1.29;;
23668;SDS011;12011;47.422;15.018;2024-03-23T11:00:30;0.98;;;0.98;;
23668;SDS011;12011;47.422;15.018;2024-03-23T11:02:57;0.77;;;0.77;;
23668;SDS011;12011;47.422;15.018;2024-03-23T11:05:28;0.90;;;0.90;;
23668;SDS011;12011;47.422;15.018;2024-03-23T11:07:56;0.88;;;0.88;;
23668;SDS011;12011;47.422;15.018;2024-03-23T11:10:26;0.77;;;0.77;;
23668;SDS011;12011;47.422;15.018;2024-03-23T11:12:57;0.78;;;0.78;;
23668;SDS011;12011;47.422;15.018;2024-03-23T11:15:24;0.85;;;0.85;;
23668;SDS011;12011;47.422;15.018;2024-03-23T11:18:03;0.71;;;0.71;;
23668;SDS011;12011;47.422;15.018;2024-03-23T11:20:32;0.73;;;0.73;;
23668;SDS011;12011;47.422;15.018;2024-03-23T11:22:59;0.65;;;0.65;;
23668;SDS011;12011;47.422;15.018;2024-03-23T11:25:27;0.64;;;0.64;;
23668;SDS011;12011;47.422;15.018;2024-03-23T11:27:58;0.62;;;0.62;;
23668;SDS011;12011;47.422;15.018;2024-03-23T11:30:37;0.58;;;0.58;;
23668;SDS011;12011;47.422;15.018;2024-03-23T11:33:04;0.61;;;0.61;;
23668;SDS011;12011;47.422;15.018;2024-03-23T11:35:33;0.62;;;0.62;;
23668;SDS011;12011;47.422;15.018;2024-03-23T11:38:02;0.68;;;0.68;;
23668;SDS011;12011;47.422;15.018;2024-03-23T11:40:30;0.72;;;0.72;;
23668;SDS011;12011;47.422;15.018;2024-03-23T11:43:01;0.66;;;0.66;;
23668;SDS011;12011;47.422;15.018;2024-03-23T11:45:33;0.65;;;0.65;;
23668;SDS011;12011;47.422;15.018;2024-03-23T11:48:02;0.60;;;0.60;;
23668;SDS011;12011;47.422;15.018;2024-03-23T11:50:34;0.84;;;0.84;;
23668;SDS011;12011;47.422;15.018;2024-03-23T11:53:14;0.67;;;0.67;;
23668;SDS011;12011;47.422;15.018;2024-03-23T11:55:46;0.71;;;0.71;;
23668;SDS011;12011;47.422;15.018;2024-03-23T11:58:18;0.74;;;0.74;;
23668;SDS011;12011;47.422;15.018;2024-03-23T12:00:51;0.73;;;0.73;;
23668;SDS011;12011;47.422;15.018;2024-03-23T12:03:22;0.85;;;0.85;;
23668;SDS011;12011;47.422;15.018;2024-03-23T12:05:51;0.83;;;0.83;;
23668;SDS011;12011;47.422;15.018;2024-03-23T12:08:20;0.87;;;0.87;;
23668;SDS011;12011;47.422;15.018;2024-03-23T12:10:49;0.97;;;0.97;;
23668;SDS011;12011;47.422;15.018;2024-03-23T12:13:21;0.95;;;0.95;;
23668;SDS011;12011;47.422;15.018;2024-03-23T12:15:49;0.99;;;0.99;;
23668;SDS011;12011;47.422;15.018;2024-03-23T12:18:17;0.91;;;0.91;;
23668;SDS011;12011;47.422;15.018;2024-03-23T12:20:49;1.08;;;1.08;;
23668;SDS011;12011;47.422;15.018;2024-03-23T12:23:16;0.94;;;0.94;;
23668;SDS011;12011;47.422;15.018;2024-03-23T12:25:43;0.93;;;0.93;;
23668;SDS011;12011;47.422;15.018;2024-03-23T12:28:10;1.00;;;1.00;;
23668;SDS011;12011;47.422;15.018;2024-03-23T12:30:41;1.07;;;1.07;;
23668;SDS011;12011;47.422;15.018;2024-03-23T12:33:08;1.16;;;1.16;;
23668;SDS011;12011;47.422;15.018;2024-03-23T12:35:35;1.05;;;1.05;;
23668;SDS011;12011;47.422;15.018;2024-03-23T12:38:01;1.08;;;1.08;;
23668;SDS011;12011;47.422;15.018;2024-03-23T12:40:29;1.11;;;1.11;;
23668;SDS011;12011;47.422;15.018;2024-03-23T12:42:55;1.10;;;1.10;;
23668;SDS011;12011;47.422;15.018;2024-03-23T12:45:22;1.08;;;1.08;;
23668;SDS011;12011;47.422;15.018;2024-03-23T12:47:52;1.08;;;1.08;;
23668;SDS011;12011;47.422;15.018;2024-03-23T12:50:19;1.02;;;1.02;;
23668;SDS011;12011;47.422;15.018;2024-03-23T12:52:46;1.29;;;1.29;;
23668;SDS011;12011;47.422;15.018;2024-03-23T12:55:13;1.18;;;1.18;;
23668;SDS011;12011;47.422;15.018;2024-03-23T12:57:40;1.11;;;1.11;;
23668;SDS011;12011;47.422;15.018;2024-03-23T13:00:08;1.03;;;1.03;;
23668;SDS011;12011;47.422;15.018;2024-03-23T13:02:36;0.87;;;0.87;;
23668;SDS011;12011;47.422;15.018;2024-03-23T13:05:06;1.15;;;1.15;;
23668;SDS011;12011;47.422;15.018;2024-03-23T13:07:34;0.87;;;0.87;;
23668;SDS011;12011;47.422;15.018;2024-03-23T13:10:01;0.86;;;0.86;;
23668;SDS011;12011;47.422;15.018;2024-03-23T13:12:28;0.76;;;0.76;;
23668;SDS011;12011;47.422;15.018;2024-03-23T13:14:55;0.70;;;0.70;;
23668;SDS011;12011;47.422;15.018;2024-03-23T13:17:22;0.73;;;0.73;;
23668;SDS011;12011;47.422;15.018;2024-03-23T13:19:48;0.84;;;0.84;;
23668;SDS011;12011;47.422;15.018;2024-03-23T13:22:18;0.73;;;0.73;;
23668;SDS011;12011;47.422;15.018;2024-03-23T13:24:45;0.68;;;0.68;;
23668;SDS011;12011;47.422;15.018;2024-03-23T13:27:12;0.63;;;0.63;;
23668;SDS011;12011;47.422;15.018;2024-03-23T13:29:38;0.93;;;0.93;;
23668;SDS011;12011;47.422;15.018;2024-03-23T13:32:05;0.79;;;0.79;;
23668;SDS011;12011;47.422;15.018;2024-03-23T13:34:33;0.78;;;0.78;;
23668;SDS011;12011;47.422;15.018;2024-03-23T13:37:00;0.66;;;0.66;;
23668;SDS011;12011;47.422;15.018;2024-03-23T13:39:30;0.75;;;0.75;;
23668;SDS011;12011;47.422;15.018;2024-03-23T13:41:57;0.59;;;0.59;;
23668;SDS011;12011;47.422;15.018;2024-03-23T13:44:23;0.79;;;0.79;;
23668;SDS011;12011;47.422;15.018;2024-03-23T13:46:50;0.69;;;0.69;;
23668;SDS011;12011;47.422;15.018;2024-03-23T13:49:24;0.59;;;0.59;;
23668;SDS011;12011;47.422;15.018;2024-03-23T13:51:52;0.80;;;0.80;;
23668;SDS011;12011;47.422;15.018;2024-03-23T13:54:20;0.60;;;0.60;;
23668;SDS011;12011;47.422;15.018;2024-03-23T13:56:50;0.61;;;0.61;;
23668;SDS011;12011;47.422;15.018;2024-03-23T13:59:17;0.54;;;0.54;;
23668;SDS011;12011;47.422;15.018;2024-03-23T14:01:44;0.47;;;0.47;;
23668;SDS011;12011;47.422;15.018;2024-03-23T14:04:13;1.72;;;1.72;;
23668;SDS011;12011;47.422;15.018;2024-03-23T14:06:41;1.83;;;1.83;;
23668;SDS011;12011;47.422;15.018;2024-03-23T14:09:08;1.12;;;1.11;;
23668;SDS011;12011;47.422;15.018;2024-03-23T14:11:34;0.72;;;0.72;;
23668;SDS011;12011;47.422;15.018;2024-03-23T14:14:04;0.58;;;0.58;;
23668;SDS011;12011;47.422;15.018;2024-03-23T14:16:31;0.50;;;0.50;;
23668;SDS011;12011;47.422;15.018;2024-03-23T14:18:58;0.31;;;0.31;;
23668;SDS011;12011;47.422;15.018;2024-03-23T14:21:25;0.21;;;0.21;;
23668;SDS011;12011;47.422;15.018;2024-03-23T14:23:52;0.15;;;0.15;;
23668;SDS011;12011;47.422;15.018;2024-03-23T14:26:19;0.14;;;0.14;;
23668;SDS011;12011;47.422;15.018;2024-03-23T14:28:46;0.13;;;0.12;;
23668;SDS011;12011;47.422;15.018;2024-03-23T14:31:17;0.25;;;0.25;;
23668;SDS011;12011;47.422;15.018;2024-03-23T14:33:44;0.19;;;0.19;;
23668;SDS011;12011;47.422;15.018;2024-03-23T14:36:11;0.24;;;0.24;;
23668;SDS011;12011;47.422;15.018;2024-03-23T14:38:38;0.10;;;0.10;;
23668;SDS011;12011;47.422;15.018;2024-03-23T14:41:05;0.20;;;0.20;;
23668;SDS011;12011;47.422;15.018;2024-03-23T14:43:32;0.16;;;0.16;;
23668;SDS011;12011;47.422;15.018;2024-03-23T14:46:06;0.17;;;0.17;;
23668;SDS011;12011;47.422;15.018;2024-03-23T14:48:37;0.16;;;0.16;;
23668;SDS011;12011;47.422;15.018;2024-03-23T14:51:04;0.16;;;0.16;;
23668;SDS011;12011;47.422;15.018;2024-03-23T14:53:32;0.08;;;0.08;;
23668;SDS011;12011;47.422;15.018;2024-03-23T14:55:59;0.20;;;0.20;;
23668;SDS011;12011;47.422;15.018;2024-03-23T14:58:26;0.06;;;0.06;;
23668;SDS011;12011;47.422;15.018;2024-03-23T15:00:59;0.07;;;0.07;;
23668;SDS011;12011;47.422;15.018;2024-03-23T15:03:27;0.13;;;0.13;;
23668;SDS011;12011;47.422;15.018;2024-03-23T15:05:57;0.10;;;0.10;;
23668;SDS011;12011;47.422;15.018;2024-03-23T15:08:25;0.28;;;0.28;;
23668;SDS011;12011;47.422;15.018;2024-03-23T15:10:51;0.20;;;0.20;;
23668;SDS011;12011;47.422;15.018;2024-03-23T15:13:19;0.13;;;0.13;;
23668;SDS011;12011;47.422;15.018;2024-03-23T15:15:47;0.09;;;0.08;;
23668;SDS011;12011;47.422;15.018;2024-03-23T15:18:14;0.15;;;0.15;;
23668;SDS011;12011;47.422;15.018;2024-03-23T15:20:41;0.11;;;0.11;;
23668;SDS011;12011;47.422;15.018;2024-03-23T15:23:20;0.07;;;0.07;;
23668;SDS011;12011;47.422;15.018;2024-03-23T15:25:53;0.18;;;0.18;;
23668;SDS011;12011;47.422;15.018;2024-03-23T15:28:20;0.24;;;0.24;;
23668;SDS011;12011;47.422;15.018;2024-03-23T15:30:47;0.37;;;0.36;;
23668;SDS011;12011;47.422;15.018;2024-03-23T15:33:14;0.29;;;0.29;;
23668;SDS011;12011;47.422;15.018;2024-03-23T15:35:41;0.36;;;0.35;;
23668;SDS011;12011;47.422;15.018;2024-03-23T15:38:08;0.35;;;0.34;;
23668;SDS011;12011;47.422;15.018;2024-03-23T15:40:37;0.28;;;0.28;;